Time;durP1;ratioP1;P1;durP2;ratioP2;P2;SDS_P1;SDS_P2;PMS_P1;PMS_P2;Temp;Humidity;BMP_temperature;BMP_pressure;BME280_temperature;BME280_humidity;BME280_pressure;Samples;Min_cycle;Max_cycle;Signal;HPM_P1;HPM_P2
2024/02/21 00:01:35;;;;;;;20.80;7.15;;;;;;;9.98;88.93;102035.09;5108421;28;20044;-68
2024/02/21 00:04:03;;;;;;;27.20;7.82;;;;;;;9.56;91.04;102034.53;5107782;28;20048;-69
2024/02/21 00:06:30;;;;;;;23.48;7.82;;;;;;;9.57;92.56;102034.28;5105013;28;20063;-69
2024/02/21 00:08:58;;;;;;;25.98;8.48;;;;;;;9.54;92.74;102034.81;5107970;28;20059;-70
2024/02/21 00:11:25;;;;;;;24.70;8.40;;;;;;;9.79;92.16;102032.09;5108686;28;20048;-69
2024/02/21 00:13:53;;;;;;;26.25;8.48;;;;;;;9.96;91.19;102023.53;5108216;28;20066;-69
2024/02/21 00:16:20;;;;;;;27.15;7.70;;;;;;;9.98;90.41;102021.31;5099641;28;20055;-68
2024/02/21 00:18:48;;;;;;;23.27;7.88;;;;;;;9.88;90.49;102019.44;5108235;28;20051;-69
2024/02/21 00:21:17;;;;;;;25.17;8.02;;;;;;;10.02;90.61;102022.44;5106788;28;20066;-69
2024/02/21 00:23:46;;;;;;;21.00;8.75;;;;;;;9.96;90.45;102027.09;5089707;28;20129;-69
2024/02/21 00:26:14;;;;;;;27.05;8.68;;;;;;;10.26;89.59;102020.75;5108011;28;20051;-69
2024/02/21 00:28:41;;;;;;;19.83;8.27;;;;;;;10.19;88.91;102020.22;5105748;28;20728;-69
2024/02/21 00:31:08;;;;;;;25.13;9.35;;;;;;;10.17;88.95;102005.91;5108107;28;20414;-71
2024/02/21 00:33:36;;;;;;;25.77;8.77;;;;;;;10.18;88.50;101999.31;5090322;28;20573;-69
2024/02/21 00:36:04;;;;;;;27.02;9.55;;;;;;;9.78;89.66;102000.16;5107925;28;20513;-70
2024/02/21 00:38:31;;;;;;;25.02;9.20;;;;;;;9.86;90.99;102007.88;5105912;28;20059;-69
2024/02/21 00:40:58;;;;;;;27.90;8.45;;;;;;;10.04;89.58;101992.69;5101156;28;20059;-68
2024/02/21 00:43:26;;;;;;;25.33;8.40;;;;;;;9.96;89.43;101996.00;5107289;28;20047;-68
2024/02/21 00:45:53;;;;;;;30.35;8.82;;;;;;;9.94;89.99;101989.94;5089569;28;20547;-70
2024/02/21 00:48:21;;;;;;;22.58;8.95;;;;;;;9.81;90.38;101968.50;5093069;28;20051;-68
2024/02/21 00:50:48;;;;;;;26.35;9.05;;;;;;;10.08;90.13;101969.00;5109462;28;20054;-68
2024/02/21 00:53:16;;;;;;;26.10;9.30;;;;;;;10.28;88.51;101963.47;5095252;28;20051;-69
2024/02/21 00:55:43;;;;;;;20.90;7.80;;;;;;;10.36;87.76;101973.06;5093170;28;20051;-69
2024/02/21 00:58:10;;;;;;;25.42;8.52;;;;;;;10.37;87.25;101970.03;5108436;28;20052;-69
2024/02/21 01:00:38;;;;;;;20.45;7.78;;;;;;;9.92;89.05;101962.69;5108031;28;20062;-68
2024/02/21 01:03:05;;;;;;;20.08;8.05;;;;;;;10.10;89.07;101959.38;5088049;28;20040;-69
2024/02/21 01:05:32;;;;;;;25.50;9.23;;;;;;;10.43;87.80;101941.34;5108934;28;20062;-69
2024/02/21 01:08:00;;;;;;;25.70;8.60;;;;;;;10.21;86.84;101940.91;5092309;28;20052;-67
2024/02/21 01:10:28;;;;;;;21.05;8.45;;;;;;;10.15;88.22;101951.13;5110558;28;20600;-68
2024/02/21 01:12:55;;;;;;;26.25;9.13;;;;;;;10.29;87.75;101923.00;5110395;28;20040;-69
2024/02/21 01:15:22;;;;;;;24.88;8.57;;;;;;;10.11;87.69;101916.97;5110424;28;20066;-68
2024/02/21 01:17:54;;;;;;;24.25;8.70;;;;;;;9.91;88.56;101913.44;5099313;28;20046;-69
2024/02/21 01:20:21;;;;;;;24.45;8.57;;;;;;;10.12;88.39;101920.56;5110361;28;20061;-69
2024/02/21 01:22:49;;;;;;;24.13;9.60;;;;;;;10.05;88.14;101931.84;5110735;28;20055;-68
2024/02/21 01:25:16;;;;;;;25.25;9.15;;;;;;;9.89;89.15;101930.25;5110903;28;20521;-68
2024/02/21 01:27:43;;;;;;;20.95;9.23;;;;;;;9.92;88.66;101898.59;5108805;28;20060;-68
2024/02/21 01:30:11;;;;;;;24.45;9.60;;;;;;;9.66;89.83;101930.03;5072213;28;20068;-70
2024/02/21 01:32:39;;;;;;;29.48;9.82;;;;;;;9.69;90.04;101935.78;5090348;28;20063;-69
2024/02/21 01:35:07;;;;;;;21.98;9.52;;;;;;;9.84;90.23;101946.78;5090428;28;20044;-70
2024/02/21 01:37:35;;;;;;;22.30;9.00;;;;;;;9.87;88.97;101945.38;5090085;28;20454;-69
2024/02/21 01:40:03;;;;;;;23.70;8.93;;;;;;;9.77;89.69;101929.72;5095846;28;20059;-72
2024/02/21 01:42:30;;;;;;;21.77;9.50;;;;;;;9.51;90.45;101925.38;5088644;28;20059;-69
2024/02/21 01:44:57;;;;;;;24.73;10.05;;;;;;;9.63;90.18;101934.16;5071520;28;20074;-68
2024/02/21 01:47:25;;;;;;;22.85;10.02;;;;;;;9.64;90.91;101944.03;5071064;28;20063;-69
2024/02/21 01:49:52;;;;;;;20.77;9.88;;;;;;;9.76;90.34;101941.81;5074777;28;20059;-70
2024/02/21 01:52:19;;;;;;;26.40;9.95;;;;;;;9.77;89.58;101932.47;5094908;28;20066;-69
2024/02/21 01:54:47;;;;;;;26.02;10.10;;;;;;;9.66;90.53;101919.03;5096147;28;20062;-68
2024/02/21 01:57:15;;;;;;;26.85;9.80;;;;;;;9.80;89.83;101887.88;5089763;28;20052;-69
2024/02/21 01:59:42;;;;;;;24.70;9.57;;;;;;;9.85;89.04;101871.34;5107998;28;20066;-68
2024/02/21 02:02:09;;;;;;;26.58;10.40;;;;;;;9.55;90.78;101862.38;5096256;28;20604;-68
2024/02/21 02:04:38;;;;;;;25.63;10.52;;;;;;;9.68;89.70;101859.84;5089656;28;20059;-69
2024/02/21 02:07:06;;;;;;;24.17;9.65;;;;;;;9.50;90.54;101870.66;5086961;28;20062;-69
2024/02/21 02:09:34;;;;;;;21.38;9.68;;;;;;;9.50;91.45;101867.91;5106831;28;20048;-69
2024/02/21 02:12:04;;;;;;;30.08;9.98;;;;;;;9.17;91.54;101855.53;5092343;28;20052;-69
2024/02/21 02:14:33;;;;;;;24.30;9.63;;;;;;;9.25;92.32;101848.69;5088149;28;20059;-69
2024/02/21 02:17:00;;;;;;;25.42;9.23;;;;;;;9.37;91.79;101851.97;5088872;28;20047;-68
2024/02/21 02:19:30;;;;;;;22.05;9.55;;;;;;;9.39;91.74;101849.75;5088753;28;20430;-69
2024/02/21 02:22:10;;;;;;;25.02;9.82;;;;;;;9.17;91.94;101846.50;5068536;28;20150;-69
2024/02/21 02:24:37;;;;;;;27.92;9.57;;;;;;;8.95;93.54;101827.53;5071306;28;20060;-70
2024/02/21 02:27:05;;;;;;;26.88;9.93;;;;;;;9.06;93.87;101832.78;5087867;28;20091;-69
2024/02/21 02:29:32;;;;;;;25.50;10.35;;;;;;;9.17;92.93;101847.31;5087275;28;20498;-70
2024/02/21 02:32:00;;;;;;;26.83;10.07;;;;;;;8.97;93.03;101855.56;5073791;28;20837;-70
2024/02/21 02:34:27;;;;;;;22.75;9.93;;;;;;;8.98;93.58;101841.56;5085230;28;20503;-68
2024/02/21 02:36:55;;;;;;;21.30;9.75;;;;;;;9.18;93.42;101829.72;5101282;28;20052;-68
2024/02/21 02:39:22;;;;;;;21.98;9.70;;;;;;;8.97;93.55;101830.84;5108797;28;20592;-70
2024/02/21 02:41:49;;;;;;;26.85;10.07;;;;;;;9.00;94.14;101827.53;5091204;28;20060;-69
2024/02/21 02:44:19;;;;;;;27.02;10.00;;;;;;;9.11;93.82;101809.94;5088539;28;20059;-69
2024/02/21 02:46:46;;;;;;;23.85;10.75;;;;;;;9.03;93.51;101805.81;5090741;28;20063;-68
2024/02/21 02:49:14;;;;;;;30.88;9.80;;;;;;;9.09;93.61;101804.72;5098069;28;20063;-68
2024/02/21 02:51:43;;;;;;;27.13;10.85;;;;;;;9.19;94.05;101800.31;5070396;28;20067;-69
2024/02/21 02:54:11;;;;;;;27.77;10.75;;;;;;;8.91;94.51;101801.72;5086856;28;20048;-69
2024/02/21 02:56:38;;;;;;;24.02;10.20;;;;;;;8.79;94.74;101804.75;5089544;28;20167;-68
2024/02/21 02:59:08;;;;;;;27.55;10.30;;;;;;;8.98;94.62;101792.09;5103944;28;20056;-69
2024/02/21 03:01:36;;;;;;;20.83;10.32;;;;;;;9.13;94.11;101788.50;5086879;28;20436;-69
2024/02/21 03:04:03;;;;;;;25.88;10.57;;;;;;;9.17;93.95;101792.31;5086535;28;20478;-70
2024/02/21 03:06:30;;;;;;;22.85;10.25;;;;;;;9.28;92.96;101773.88;5086791;28;20677;-68
2024/02/21 03:08:59;;;;;;;24.60;9.90;;;;;;;9.40;92.64;101771.66;5104681;28;20051;-69
2024/02/21 03:11:28;;;;;;;25.00;10.33;;;;;;;9.46;91.85;101756.78;5073761;28;20082;-69
2024/02/21 03:13:57;;;;;;;23.70;10.55;;;;;;;9.42;91.54;101731.78;5092864;28;20044;-69
2024/02/21 03:16:24;;;;;;;23.63;10.00;;;;;;;9.43;91.59;101732.63;5106629;28;20055;-69
2024/02/21 03:18:52;;;;;;;29.33;10.32;;;;;;;9.30;91.82;101731.28;5086549;28;20055;-69
2024/02/21 03:21:19;;;;;;;25.80;10.68;;;;;;;9.22;92.33;101729.13;5086908;28;20059;-69
2024/02/21 03:23:46;;;;;;;22.92;9.50;;;;;;;9.20;92.14;101725.81;5086848;28;20044;-68
2024/02/21 03:26:16;;;;;;;25.83;10.45;;;;;;;9.55;91.63;101700.09;5080057;28;20052;-69
2024/02/21 03:28:46;;;;;;;22.30;9.65;;;;;;;9.67;90.44;101695.91;5103008;28;20075;-69
2024/02/21 03:31:14;;;;;;;22.55;10.13;;;;;;;9.38;90.92;101688.66;5108006;28;20066;-68
2024/02/21 03:33:42;;;;;;;27.63;10.75;;;;;;;9.39;91.55;101691.09;5108744;28;20046;-70
2024/02/21 03:36:15;;;;;;;24.48;9.55;;;;;;;9.32;91.22;101687.00;5108408;28;20063;-69
2024/02/21 03:38:43;;;;;;;21.08;9.60;;;;;;;9.40;91.44;101683.66;5106920;28;20055;-69
2024/02/21 03:41:10;;;;;;;22.33;9.88;;;;;;;9.22;91.31;101689.81;5099572;28;20055;-69
2024/02/21 03:43:38;;;;;;;24.00;9.70;;;;;;;9.13;92.57;101695.84;5088177;28;20442;-69
2024/02/21 03:46:06;;;;;;;24.48;10.45;;;;;;;9.10;93.08;101701.09;5088310;28;20059;-68
2024/02/21 03:48:34;;;;;;;21.95;9.88;;;;;;;9.06;93.35;101700.84;5069521;28;20078;-69
2024/02/21 03:51:04;;;;;;;24.00;10.32;;;;;;;8.93;94.64;101706.94;5087868;28;20055;-68
2024/02/21 03:53:32;;;;;;;25.92;9.80;;;;;;;9.01;94.35;101711.84;5093120;28;20048;-69
2024/02/21 03:56:04;;;;;;;21.77;10.10;;;;;;;9.13;93.45;101712.34;5088162;28;20052;-69
2024/02/21 03:58:32;;;;;;;24.80;10.70;;;;;;;9.41;92.29;101713.66;5094613;28;20051;-70
2024/02/21 04:01:01;;;;;;;24.77;10.60;;;;;;;9.35;92.10;101708.44;5089331;28;20071;-69
2024/02/21 04:03:31;;;;;;;22.85;10.00;;;;;;;9.26;91.49;101702.69;5089574;28;20495;-69
2024/02/21 04:05:58;;;;;;;20.15;9.55;;;;;;;9.32;92.26;101703.50;5079269;28;20062;-69
2024/02/21 04:08:26;;;;;;;22.05;10.00;;;;;;;9.22;92.18;101706.28;5107001;28;20055;-68
2024/02/21 04:10:53;;;;;;;29.00;10.90;;;;;;;9.13;92.18;101715.09;5106644;28;20396;-68
2024/02/21 04:13:22;;;;;;;29.38;10.52;;;;;;;9.19;92.39;101704.91;5106529;28;20048;-69
2024/02/21 04:15:50;;;;;;;25.75;11.27;;;;;;;9.23;92.65;101699.69;5108228;28;20060;-69
2024/02/21 04:18:17;;;;;;;30.73;10.77;;;;;;;9.23;92.44;101685.94;5087422;28;20538;-69
2024/02/21 04:20:44;;;;;;;26.23;10.30;;;;;;;9.29;92.17;101679.34;5089655;28;20064;-69
2024/02/21 04:23:11;;;;;;;24.70;10.65;;;;;;;9.29;92.48;101687.59;5090233;28;20040;-68
2024/02/21 04:25:39;;;;;;;21.88;9.75;;;;;;;9.19;92.41;101671.94;5091542;28;20683;-68
2024/02/21 04:28:06;;;;;;;21.95;9.07;;;;;;;9.13;92.91;101648.34;5091434;28;20040;-69
2024/02/21 04:30:34;;;;;;;28.23;10.77;;;;;;;9.16;92.82;101636.78;5073625;28;20490;-70
2024/02/21 04:33:04;;;;;;;21.95;10.02;;;;;;;9.08;92.49;101664.84;5073314;28;20048;-69
2024/02/21 04:35:31;;;;;;;22.73;10.18;;;;;;;9.04;92.87;101670.09;5090763;28;20052;-70
2024/02/21 04:37:59;;;;;;;22.50;10.13;;;;;;;9.10;93.24;101659.88;5072760;28;20396;-70
2024/02/21 04:40:27;;;;;;;23.60;9.98;;;;;;;9.25;92.42;101656.25;5091261;28;20616;-69
2024/02/21 04:42:54;;;;;;;24.67;10.18;;;;;;;9.12;92.51;101649.41;5091794;28;20056;-69
2024/02/21 04:45:21;;;;;;;21.95;10.18;;;;;;;9.26;92.50;101649.66;5089147;28;20067;-69
2024/02/21 04:47:49;;;;;;;23.38;9.82;;;;;;;9.03;93.04;101654.69;5089872;28;20059;-69
2024/02/21 04:50:16;;;;;;;20.20;9.82;;;;;;;8.95;92.82;101671.75;5077526;28;20605;-69
2024/02/21 04:52:43;;;;;;;23.45;9.80;;;;;;;8.95;93.66;101670.94;5111108;28;20851;-69
2024/02/21 04:55:11;;;;;;;22.70;10.13;;;;;;;9.12;92.65;101654.13;5110090;28;20058;-69
2024/02/21 04:57:38;;;;;;;23.98;9.80;;;;;;;9.10;93.02;101666.19;5092902;28;20056;-69
2024/02/21 05:00:07;;;;;;;23.85;10.32;;;;;;;9.00;93.31;101659.91;5109825;28;20058;-69
2024/02/21 05:02:34;;;;;;;22.15;9.80;;;;;;;8.79;93.88;101644.59;5098141;28;20467;-68
2024/02/21 05:05:03;;;;;;;19.40;9.77;;;;;;;8.85;94.10;101632.50;5091628;28;20055;-68
2024/02/21 05:07:31;;;;;;;;;;;;;;;8.78;94.84;101620.97;5089111;28;20074;-69
2024/02/21 05:09:59;;;;;;;19.55;10.38;;;;;;;8.82;94.61;101620.13;5088381;28;19924;-68
2024/02/21 05:12:27;;;;;;;24.85;10.20;;;;;;;8.81;94.44;101634.16;5089696;28;20044;-70
2024/02/21 05:14:54;;;;;;;26.15;10.48;;;;;;;8.87;94.97;101641.28;5090592;28;20028;-68
2024/02/21 05:17:22;;;;;;;26.73;10.15;;;;;;;8.97;94.13;101627.50;5101366;28;20055;-69
2024/02/21 05:19:49;;;;;;;22.30;9.20;;;;;;;8.96;94.07;101612.94;5109383;28;20048;-69
2024/02/21 05:22:16;;;;;;;23.85;9.73;;;;;;;8.95;94.04;101615.97;5104076;28;20054;-68
2024/02/21 05:24:44;;;;;;;16.95;9.43;;;;;;;9.08;93.30;101618.13;5089041;28;20656;-69
2024/02/21 05:27:11;;;;;;;22.52;9.80;;;;;;;8.98;93.38;101609.91;5088070;28;20060;-69
2024/02/21 05:29:38;;;;;;;25.77;9.63;;;;;;;8.90;93.85;101603.09;5090233;28;20048;-70
2024/02/21 05:32:06;;;;;;;25.17;9.95;;;;;;;8.70;95.15;101607.84;5089303;28;20581;-69
2024/02/21 05:34:33;;;;;;;22.98;9.18;;;;;;;8.60;95.13;101602.34;5088832;28;20562;-70
2024/02/21 05:37:01;;;;;;;24.70;10.30;;;;;;;8.70;95.70;101597.66;5090642;28;20060;-68
2024/02/21 05:39:29;;;;;;;21.08;8.73;;;;;;;8.72;95.09;101598.19;5071662;28;20047;-68
2024/02/21 05:41:56;;;;;;;20.92;9.25;;;;;;;8.89;95.08;101576.69;5090345;28;20056;-69
2024/02/21 05:44:24;;;;;;;19.38;8.95;;;;;;;8.84;94.53;101593.22;5089106;28;20055;-68
2024/02/21 05:46:51;;;;;;;24.67;9.65;;;;;;;8.83;94.37;101574.25;5088400;28;20060;-68
2024/02/21 05:49:18;;;;;;;19.73;9.32;;;;;;;8.92;94.35;101572.59;5089819;28;20048;-69
2024/02/21 05:51:46;;;;;;;20.92;8.80;;;;;;;8.95;94.21;101592.06;5088471;28;20067;-68
2024/02/21 05:54:14;;;;;;;22.02;10.13;;;;;;;8.80;94.15;101585.81;5093929;28;20044;-69
2024/02/21 05:56:45;;;;;;;22.00;9.18;;;;;;;8.87;94.74;101572.59;5098341;28;20063;-70
2024/02/21 05:59:13;;;;;;;24.08;9.60;;;;;;;8.81;94.63;101585.53;5104429;28;20052;-69
2024/02/21 06:01:40;;;;;;;18.58;9.55;;;;;;;8.89;94.85;101571.22;5094556;28;20055;-68
2024/02/21 06:04:07;;;;;;;22.48;10.15;;;;;;;9.06;93.81;101579.94;5087879;28;20039;-68
2024/02/21 06:06:35;;;;;;;18.85;9.32;;;;;;;8.74;94.44;101573.19;5089640;28;20063;-69
2024/02/21 06:09:03;;;;;;;23.38;10.13;;;;;;;8.62;95.87;101576.25;5100051;28;20462;-70
2024/02/21 06:11:30;;;;;;;20.33;9.35;;;;;;;8.91;95.69;101554.44;5109677;28;20055;-68
2024/02/21 06:13:58;;;;;;;27.05;9.27;;;;;;;9.08;94.38;101555.72;5110049;28;20052;-68
2024/02/21 06:16:25;;;;;;;21.20;10.35;;;;;;;9.01;94.27;101548.91;5102727;28;20048;-68
2024/02/21 06:18:52;;;;;;;21.15;9.60;;;;;;;8.83;94.91;101544.88;5088640;28;20554;-69
2024/02/21 06:21:20;;;;;;;25.30;9.15;;;;;;;8.95;94.90;101522.56;5087798;28;20044;-69
2024/02/21 06:23:47;;;;;;;22.80;9.55;;;;;;;8.87;95.18;101512.97;5087386;28;20074;-69
2024/02/21 06:26:14;;;;;;;23.85;8.93;;;;;;;8.87;95.17;101503.94;5087029;28;20067;-69
2024/02/21 06:28:42;;;;;;;24.00;9.38;;;;;;;8.84;95.85;101477.00;5086855;28;20534;-70
2024/02/21 06:31:10;;;;;;;22.17;9.43;;;;;;;8.95;95.55;101511.56;5089123;28;20067;-69
2024/02/21 06:33:37;;;;;;;16.48;8.98;;;;;;;8.88;94.24;101528.38;5088910;28;20059;-71
2024/02/21 06:36:05;;;;;;;22.83;9.50;;;;;;;8.98;95.02;101514.56;5081596;28;20054;-70
2024/02/21 06:38:33;;;;;;;19.10;8.52;;;;;;;9.05;94.49;101514.25;5087677;28;20062;-69
2024/02/21 06:41:02;;;;;;;20.10;9.93;;;;;;;9.00;94.41;101530.75;5095209;28;20051;-69
2024/02/21 06:43:30;;;;;;;19.95;9.77;;;;;;;9.24;94.56;101519.91;5107099;28;20050;-68
2024/02/21 06:45:57;;;;;;;27.55;8.70;;;;;;;9.41;93.45;101503.84;5106040;28;20099;-69
2024/02/21 06:48:25;;;;;;;20.02;8.57;;;;;;;9.38;92.23;101505.22;5090678;28;20501;-69
2024/02/21 06:50:52;;;;;;;22.98;9.40;;;;;;;9.31;93.23;101498.44;5106924;28;20055;-69
2024/02/21 06:53:20;;;;;;;20.52;8.75;;;;;;;9.36;92.38;101501.97;5088222;28;20531;-69
2024/02/21 06:55:47;;;;;;;19.23;8.88;;;;;;;9.28;92.89;101513.56;5087518;28;20589;-68
2024/02/21 06:58:16;;;;;;;21.58;8.55;;;;;;;9.16;93.37;101498.50;5092517;28;20063;-69
2024/02/21 07:00:44;;;;;;;20.23;9.65;;;;;;;9.27;93.50;101489.94;5104098;28;20430;-70
2024/02/21 07:03:11;;;;;;;19.92;8.05;;;;;;;9.01;94.73;101492.00;5088021;28;20051;-69
2024/02/21 07:05:38;;;;;;;18.23;8.82;;;;;;;9.06;95.22;101482.94;5088405;28;20055;-69
2024/02/21 07:08:06;;;;;;;20.25;8.07;;;;;;;9.04;94.62;101474.97;5071619;28;20054;-70
2024/02/21 07:10:33;;;;;;;20.65;7.93;;;;;;;9.13;94.58;101465.00;5086235;28;20071;-70
2024/02/21 07:13:01;;;;;;;23.25;7.57;;;;;;;9.27;94.74;101475.38;5069990;28;20067;-69
2024/02/21 07:15:31;;;;;;;19.08;7.40;;;;;;;9.38;93.65;101466.72;5078262;28;20283;-69
2024/02/21 07:17:58;;;;;;;15.98;7.50;;;;;;;9.20;92.98;101470.19;5070265;28;20051;-69
2024/02/21 07:20:26;;;;;;;18.65;7.15;;;;;;;9.03;94.24;101469.78;5087925;28;20060;-70
2024/02/21 07:22:54;;;;;;;20.90;8.43;;;;;;;9.04;94.39;101469.47;5074375;28;20063;-68
2024/02/21 07:25:21;;;;;;;16.35;7.05;;;;;;;9.10;94.61;101473.00;5108409;28;20048;-70
2024/02/21 07:27:48;;;;;;;16.63;6.95;;;;;;;9.27;93.87;101478.94;5091403;28;20048;-71
2024/02/21 07:30:16;;;;;;;22.67;7.40;;;;;;;9.40;93.28;101480.19;5085727;28;20052;-69
2024/02/21 07:32:44;;;;;;;15.60;6.30;;;;;;;9.40;92.83;101481.03;5086394;28;20052;-70
2024/02/21 07:35:11;;;;;;;20.75;6.95;;;;;;;9.63;92.50;101483.03;5088376;28;20880;-69
2024/02/21 07:37:39;;;;;;;25.98;14.57;;;;;;;9.81;91.05;101487.84;5087751;28;20056;-69
2024/02/21 07:40:15;;;;;;;19.25;9.02;;;;;;;9.90;89.90;101497.06;5086722;28;20521;-69
2024/02/21 07:42:43;;;;;;;20.90;6.82;;;;;;;9.94;89.76;101480.81;5090638;28;20143;-70
2024/02/21 07:45:15;;;;;;;21.10;7.30;;;;;;;9.87;89.23;101483.91;5086456;28;20052;-69
2024/02/21 07:47:42;;;;;;;19.73;6.68;;;;;;;9.79;89.83;101487.28;5098347;28;20066;-71
2024/02/21 07:50:10;;;;;;;19.02;6.68;;;;;;;9.94;90.09;101489.06;5100095;28;20052;-69
2024/02/21 07:52:37;;;;;;;20.38;5.72;;;;;;;10.11;89.71;101479.28;5096786;28;20063;-70
2024/02/21 07:55:05;;;;;;;14.25;6.28;;;;;;;9.97;88.71;101472.78;5086130;28;20070;-70
2024/02/21 07:57:32;;;;;;;19.33;7.18;;;;;;;10.32;88.63;101468.84;5096327;28;20048;-69
2024/02/21 08:00:00;;;;;;;18.05;6.45;;;;;;;9.98;88.14;101462.59;5057206;28;20704;-71
2024/02/21 08:02:28;;;;;;;24.02;10.15;;;;;;;9.96;88.42;101464.81;5098568;28;20044;-70
2024/02/21 08:04:55;;;;;;;26.92;8.80;;;;;;;10.05;89.00;101449.31;5093352;28;20064;-66
2024/02/21 08:07:22;;;;;;;16.55;6.75;;;;;;;10.21;88.03;101442.56;5098146;28;20511;-66
2024/02/21 08:10:04;;;;;;;14.75;6.88;;;;;;;10.47;86.74;101445.81;5097704;28;20059;-67
2024/02/21 08:12:47;;;;;;;18.60;6.20;;;;;;;10.45;86.52;101432.34;5095998;28;20048;-69
2024/02/21 08:15:15;;;;;;;14.98;6.68;;;;;;;10.67;86.05;101429.03;5099901;28;20048;-65
2024/02/21 08:17:43;;;;;;;16.05;6.82;;;;;;;10.44;85.40;101427.16;5097191;28;20063;-66
2024/02/21 08:20:11;;;;;;;18.17;7.32;;;;;;;10.58;85.10;101422.56;5090846;28;20047;-66
2024/02/21 08:22:39;;;;;;;21.08;11.18;;;;;;;10.42;85.13;101423.84;5092119;28;20051;-66
2024/02/21 08:25:06;;;;;;;30.58;14.55;;;;;;;10.57;85.54;101415.38;5106819;28;20044;-68
2024/02/21 08:27:34;;;;;;;17.85;7.78;;;;;;;10.58;84.57;101412.38;5103694;27;20059;-66
2024/02/21 08:30:02;;;;;;;17.52;7.63;;;;;;;10.63;84.26;101420.56;5104069;27;20047;-68
2024/02/21 08:32:29;;;;;;;20.08;9.75;;;;;;;10.50;84.22;101406.66;5092367;28;20047;-66
2024/02/21 08:34:57;;;;;;;21.52;7.32;;;;;;;10.36;84.15;101401.06;5099303;28;20056;-71
2024/02/21 08:37:35;;;;;;;21.10;7.55;;;;;;;10.26;85.78;101397.63;5078383;28;20083;-72
2024/02/21 08:40:08;;;;;;;17.08;6.63;;;;;;;10.12;86.41;101384.59;5105612;27;20076;-71
2024/02/21 08:42:36;;;;;;;17.38;7.15;;;;;;;10.34;86.88;101385.97;5086040;28;20082;-71
2024/02/21 08:45:07;;;;;;;21.52;7.50;;;;;;;10.36;86.38;101384.53;5104543;28;20035;-71
2024/02/21 08:47:38;;;;;;;16.95;7.30;;;;;;;10.43;85.93;101385.00;5109070;28;20055;-72
2024/02/21 08:50:07;;;;;;;18.98;7.07;;;;;;;10.51;85.59;101386.28;5076447;28;20069;-70
2024/02/21 08:52:45;;;;;;;19.83;7.05;;;;;;;10.22;86.33;101371.81;5100288;28;20047;-69
2024/02/21 08:55:13;;;;;;;27.73;7.35;;;;;;;10.20;87.10;101380.34;5098755;28;20051;-72
2024/02/21 08:57:44;;;;;;;28.70;8.15;;;;;;;10.30;86.95;101377.47;5097492;28;20064;-72
2024/02/21 09:00:12;;;;;;;16.90;6.85;;;;;;;10.48;86.02;101367.59;5096662;28;20088;-72
2024/02/21 09:02:48;;;;;;;15.88;6.28;;;;;;;10.65;86.22;101354.94;5076548;28;20040;-69
2024/02/21 09:05:15;;;;;;;18.20;6.28;;;;;;;10.51;85.24;101367.00;5095522;28;20051;-71
2024/02/21 09:07:43;;;;;;;15.82;5.47;;;;;;;10.53;85.50;101359.28;5091071;28;20063;-71
2024/02/21 09:10:11;;;;;;;18.35;5.30;;;;;;;10.62;85.45;101349.19;5088365;28;20051;-71
2024/02/21 09:12:38;;;;;;;17.90;5.70;;;;;;;10.77;84.64;101360.84;5090958;28;20056;-71
2024/02/21 09:15:06;;;;;;;17.23;5.60;;;;;;;10.64;84.59;101347.78;5097185;28;20599;-70
2024/02/21 09:17:33;;;;;;;14.15;5.47;;;;;;;10.82;84.34;101337.88;5096438;28;20051;-69
2024/02/21 09:20:03;;;;;;;14.85;5.45;;;;;;;11.08;83.61;101333.59;5091426;28;20044;-70
2024/02/21 09:22:33;;;;;;;20.80;9.98;;;;;;;10.94;82.75;101329.97;5065457;28;20052;-69
2024/02/21 09:25:03;;;;;;;33.38;18.92;;;;;;;11.07;81.99;101318.97;5080618;28;20051;-69
2024/02/21 09:27:31;;;;;;;29.25;13.07;;;;;;;11.17;82.07;101307.78;5098937;27;20047;-71
2024/02/21 09:29:58;;;;;;;15.60;6.25;;;;;;;11.11;81.37;101310.91;5094475;28;20056;-70
2024/02/21 09:32:26;;;;;;;24.83;12.75;;;;;;;11.11;81.65;101303.47;5077959;28;20505;-69
2024/02/21 09:34:54;;;;;;;12.52;6.43;;;;;;;11.19;80.59;101308.28;5071630;28;20058;-71
2024/02/21 09:37:27;;;;;;;11.98;5.07;;;;;;;11.13;81.17;101300.41;5090309;28;20856;-69
2024/02/21 09:39:54;;;;;;;13.23;5.43;;;;;;;11.11;81.65;101300.72;5086440;28;20058;-69
2024/02/21 09:42:21;;;;;;;21.20;9.90;;;;;;;11.30;80.68;101297.88;5098710;28;20052;-69
2024/02/21 09:44:50;;;;;;;20.83;6.95;;;;;;;11.20;79.79;101278.78;5099522;28;20467;-69
2024/02/21 09:47:31;;;;;;;12.18;5.60;;;;;;;11.24;79.98;101288.09;5090997;28;20059;-70
2024/02/21 09:50:00;;;;;;;13.95;5.43;;;;;;;11.33;79.71;101270.50;5094966;28;20847;-71
2024/02/21 09:52:28;;;;;;;17.38;5.18;;;;;;;11.35;79.69;101279.31;5096119;28;20043;-70
2024/02/21 09:54:56;;;;;;;15.30;5.60;;;;;;;11.25;80.19;101278.66;5090974;28;20048;-70
2024/02/21 09:57:27;;;;;;;13.25;5.68;;;;;;;11.22;80.80;101276.53;5091413;28;20059;-69
2024/02/21 09:59:59;;;;;;;13.10;5.35;;;;;;;11.35;80.32;101262.75;5095310;28;20056;-70
2024/02/21 10:02:26;;;;;;;15.32;5.13;;;;;;;11.36;79.57;101274.63;5093015;28;20048;-70
2024/02/21 10:04:54;;;;;;;16.23;5.53;;;;;;;11.27;79.88;101255.19;5093032;28;20052;-71
2024/02/21 10:07:25;;;;;;;16.42;8.35;;;;;;;11.34;80.07;101241.00;5106043;28;20051;-71
2024/02/21 10:10:05;;;;;;;10.05;4.75;;;;;;;11.42;80.27;101242.25;5073807;28;20064;-71
2024/02/21 10:12:32;;;;;;;16.95;7.47;;;;;;;11.21;80.67;101242.63;5102089;28;20052;-71
2024/02/21 10:15:04;;;;;;;15.10;6.25;;;;;;;11.26;80.77;101244.47;5095726;28;20054;-70
2024/02/21 10:17:34;;;;;;;18.58;5.85;;;;;;;11.60;80.10;101233.84;5095433;28;20048;-72
2024/02/21 10:20:09;;;;;;;15.35;5.65;;;;;;;11.62;78.94;101234.38;5065651;28;20063;-71
2024/02/21 10:22:39;;;;;;;9.07;4.63;;;;;;;11.72;79.58;101231.41;5091790;28;20051;-71
2024/02/21 10:25:09;;;;;;;14.27;4.90;;;;;;;11.78;78.42;101221.91;5097410;28;20059;-71
2024/02/21 10:27:37;;;;;;;15.23;5.40;;;;;;;11.78;79.00;101215.56;5100732;28;20047;-71
2024/02/21 10:30:07;;;;;;;12.73;4.57;;;;;;;11.85;78.66;101210.44;5095312;28;20052;-71
2024/02/21 10:32:52;;;;;;;16.00;4.93;;;;;;;11.79;78.97;101203.38;5094525;28;20055;-71
2024/02/21 10:35:30;;;;;;;14.48;4.45;;;;;;;11.90;78.64;101193.75;5094303;28;20054;-70
2024/02/21 10:37:58;;;;;;;13.48;4.38;;;;;;;11.95;77.99;101194.47;5105052;28;20047;-71
2024/02/21 10:40:30;;;;;;;15.32;6.80;;;;;;;12.13;77.99;101187.94;5095185;28;20052;-73
2024/02/21 10:43:01;;;;;;;19.55;11.52;;;;;;;12.25;78.01;101181.88;5098705;28;20058;-70
2024/02/21 10:45:34;;;;;;;20.33;10.38;;;;;;;12.22;76.46;101164.00;5098090;28;20526;-71
2024/02/21 10:48:09;;;;;;;14.50;5.25;;;;;;;12.26;76.93;101165.00;5091921;28;20047;-71
2024/02/21 10:50:59;;;;;;;14.27;4.40;;;;;;;12.54;75.95;101160.16;5080289;28;20066;-72
2024/02/21 10:53:37;;;;;;;12.32;4.18;;;;;;;12.54;75.73;101148.28;5098978;28;20055;-72
2024/02/21 10:56:26;;;;;;;13.77;4.63;;;;;;;12.42;75.77;101148.88;5091488;28;20071;-71
2024/02/21 10:58:57;;;;;;;11.40;4.13;;;;;;;12.35;76.25;101148.50;5069124;28;20556;-70
2024/02/21 11:01:28;;;;;;;17.20;5.57;;;;;;;12.64;76.20;101135.00;5057789;28;20054;-70
2024/02/21 11:03:58;;;;;;;14.32;4.55;;;;;;;12.40;75.25;101142.84;5090145;28;20055;-70
2024/02/21 11:06:27;;;;;;;61.20;37.00;;;;;;;12.32;76.07;101149.13;5084186;28;20055;-71
2024/02/21 11:09:06;;;;;;;22.02;5.57;;;;;;;12.46;75.95;101127.78;5077611;28;20055;-71
2024/02/21 11:11:41;;;;;;;16.85;5.53;;;;;;;12.13;76.09;101129.16;5092630;28;20058;-70
2024/02/21 11:14:11;;;;;;;13.05;5.18;;;;;;;12.33;76.12;101123.13;5092136;28;20554;-71
2024/02/21 11:16:40;;;;;;;12.15;5.45;;;;;;;12.29;76.11;101092.56;5099934;28;20048;-71
2024/02/21 11:19:09;;;;;;;14.68;5.50;;;;;;;12.39;75.28;101085.97;5098999;28;20052;-71
2024/02/21 11:21:58;;;;;;;14.50;5.20;;;;;;;12.44;75.35;101086.66;5079797;28;20051;-71
2024/02/21 11:24:48;;;;;;;13.43;5.25;;;;;;;12.50;75.51;101073.47;5096121;28;20052;-72
2024/02/21 11:27:25;;;;;;;14.07;6.22;;;;;;;12.45;75.29;101073.63;5090918;28;20586;-71
2024/02/21 11:30:05;;;;;;;12.95;5.78;;;;;;;12.58;75.28;101069.97;5096618;28;20056;-69